Time;durP1;ratioP1;P1;durP2;ratioP2;P2;SDS_P1;SDS_P2;PMS_P1;PMS_P2;Temp;Humidity;BMP_temperature;BMP_pressure;BME280_temperature;BME280_humidity;BME280_pressure;Samples;Min_cycle;Max_cycle;Signal;HPM_P1;HPM_P2
2021/01/29 00:02:16;;;;;;;0.30;0.30;;;;;;;11.05;100.00;96941.97;5094589;28;20195;-71
2021/01/29 00:04:44;;;;;;;1.20;0.47;;;;;;;10.97;100.00;96927.09;5094123;28;20206;-71
2021/01/29 00:07:11;;;;;;;0.47;0.40;;;;;;;10.95;100.00;96929.19;5091045;28;20249;-71
2021/01/29 00:09:37;;;;;;;0.40;0.30;;;;;;;10.92;100.00;96926.16;5074518;28;20216;-71
2021/01/29 00:12:05;;;;;;;0.20;0.20;;;;;;;10.80;100.00;96920.78;5074204;28;20220;-71
2021/01/29 00:14:32;;;;;;;0.53;0.27;;;;;;;10.83;100.00;96911.53;5075838;28;20208;-71
2021/01/29 00:17:00;;;;;;;0.60;0.40;;;;;;;10.81;100.00;96919.75;5073921;28;20217;-71
2021/01/29 00:19:27;;;;;;;0.93;0.40;;;;;;;10.73;100.00;96907.81;5082770;28;20671;-71
2021/01/29 00:21:53;;;;;;;0.40;0.40;;;;;;;10.50;100.00;96895.22;5080254;28;20204;-74
2021/01/29 00:24:20;;;;;;;0.40;0.40;;;;;;;10.46;100.00;96892.16;5086559;28;20334;-71
2021/01/29 00:26:47;;;;;;;1.20;0.60;;;;;;;10.39;100.00;96883.44;5093899;28;20280;-71
2021/01/29 00:29:14;;;;;;;0.40;0.40;;;;;;;10.29;100.00;96875.19;5090074;28;20211;-71
2021/01/29 00:31:41;;;;;;;0.37;0.30;;;;;;;10.29;100.00;96867.19;5085889;28;20569;-71
2021/01/29 00:34:08;;;;;;;1.43;0.40;;;;;;;10.20;100.00;96859.75;5075152;28;20230;-71
2021/01/29 00:36:35;;;;;;;2.17;0.50;;;;;;;10.31;100.00;96862.41;5077036;28;20219;-71
2021/01/29 00:39:03;;;;;;;0.30;0.30;;;;;;;10.28;100.00;96865.56;5073610;28;20197;-73
2021/01/29 00:41:29;;;;;;;0.50;0.30;;;;;;;10.31;100.00;96864.28;5073571;28;20196;-71
2021/01/29 00:43:56;;;;;;;0.37;0.30;;;;;;;10.44;100.00;96870.25;5079867;28;20206;-71
2021/01/29 00:46:23;;;;;;;1.13;0.50;;;;;;;10.45;100.00;96865.72;5086309;28;20667;-71
2021/01/29 00:48:50;;;;;;;0.57;0.30;;;;;;;10.31;100.00;96874.97;5091505;28;20207;-71
2021/01/29 00:51:18;;;;;;;0.30;0.30;;;;;;;10.54;100.00;96875.84;5092795;28;20762;-72
2021/01/29 00:53:45;;;;;;;0.37;0.30;;;;;;;10.57;100.00;96866.56;5086681;28;20206;-73
2021/01/29 00:56:12;;;;;;;1.03;0.57;;;;;;;10.72;100.00;96864.28;5077383;28;20203;-71
2021/01/29 00:58:38;;;;;;;0.50;0.50;;;;;;;10.61;100.00;96851.75;5086876;28;20220;-72
2021/01/29 01:01:05;;;;;;;0.40;0.40;;;;;;;10.65;100.00;96843.03;5076049;28;20561;-71
2021/01/29 01:03:32;;;;;;;0.30;0.30;;;;;;;10.71;100.00;96846.66;5087310;28;20206;-71
2021/01/29 01:05:59;;;;;;;0.40;0.40;;;;;;;10.76;100.00;96836.91;5078441;28;20200;-71
2021/01/29 01:08:27;;;;;;;0.70;0.50;;;;;;;10.77;100.00;96833.22;5093664;28;20587;-71
2021/01/29 01:10:54;;;;;;;1.77;0.57;;;;;;;10.83;100.00;96831.47;5092189;28;20268;-71
2021/01/29 01:13:21;;;;;;;0.93;0.50;;;;;;;10.91;100.00;96815.13;5084825;28;20201;-71
2021/01/29 01:15:47;;;;;;;0.40;0.40;;;;;;;10.85;100.00;96808.84;5074008;28;20228;-71
2021/01/29 01:18:14;;;;;;;0.50;0.50;;;;;;;10.91;100.00;96817.78;5073190;28;20619;-71
2021/01/29 01:20:41;;;;;;;0.30;0.30;;;;;;;10.87;100.00;96803.28;5088815;28;20654;-73
2021/01/29 01:23:09;;;;;;;0.60;0.47;;;;;;;10.93;100.00;96790.88;5089958;28;20210;-71
2021/01/29 01:25:37;;;;;;;1.17;0.50;;;;;;;10.93;100.00;96788.19;5075433;28;20230;-71
2021/01/29 01:28:04;;;;;;;0.60;0.40;;;;;;;10.73;100.00;96784.00;5088830;28;20321;-71
2021/01/29 01:30:33;;;;;;;0.63;0.50;;;;;;;10.66;100.00;96777.16;5086631;28;20223;-71
2021/01/29 01:33:00;;;;;;;0.50;0.50;;;;;;;10.74;100.00;96779.47;5092554;28;20205;-71
2021/01/29 01:35:27;;;;;;;0.67;0.60;;;;;;;10.71;100.00;96764.75;5088796;28;20211;-71
2021/01/29 01:37:54;;;;;;;2.07;0.50;;;;;;;10.73;100.00;96756.50;5083988;28;20230;-74
2021/01/29 01:40:24;;;;;;;0.43;0.43;;;;;;;10.74;100.00;96748.28;5074178;28;20211;-71
2021/01/29 01:42:52;;;;;;;1.43;0.50;;;;;;;10.50;100.00;96743.97;5079965;28;20197;-71
2021/01/29 01:45:56;;;;;;;0.50;0.50;;;;;;;10.46;100.00;96736.66;5079121;28;20200;-71
2021/01/29 01:48:51;;;;;;;0.93;0.60;;;;;;;10.63;100.00;96734.13;5078913;28;20703;-71
2021/01/29 01:51:28;;;;;;;1.03;0.40;;;;;;;10.66;100.00;96726.47;5078502;28;20266;-72
2021/01/29 01:53:59;;;;;;;1.77;0.50;;;;;;;10.63;100.00;96725.09;5076376;28;20202;-70
2021/01/29 01:56:33;;;;;;;0.60;0.60;;;;;;;10.67;100.00;96717.41;5091063;28;20337;-71
2021/01/29 01:59:03;;;;;;;0.93;0.37;;;;;;;10.50;100.00;96719.97;5082744;28;20196;-71
2021/01/29 02:01:31;;;;;;;0.50;0.40;;;;;;;10.55;100.00;96717.41;5074695;28;20200;-74
2021/01/29 02:04:00;;;;;;;0.50;0.40;;;;;;;10.43;100.00;96708.59;5071882;28;20204;-73
2021/01/29 02:06:27;;;;;;;0.50;0.50;;;;;;;10.32;100.00;96703.25;5076405;28;20225;-73
2021/01/29 02:08:57;;;;;;;4.53;0.93;;;;;;;10.44;100.00;96691.56;5075879;28;20209;-73
2021/01/29 02:11:25;;;;;;;0.70;0.40;;;;;;;10.52;100.00;96682.41;5071641;28;20219;-73
2021/01/29 02:13:52;;;;;;;0.43;0.43;;;;;;;10.41;100.00;96681.34;5076874;28;20203;-75
2021/01/29 02:16:24;;;;;;;0.90;0.60;;;;;;;10.36;100.00;96678.56;5076751;28;20197;-71
2021/01/29 02:19:19;;;;;;;1.17;0.67;;;;;;;10.25;100.00;96689.25;5092436;28;20191;-73
2021/01/29 02:22:40;;;;;;;0.70;0.70;;;;;;;10.15;100.00;96673.78;5082394;28;20666;-74
2021/01/29 02:25:52;;;;;;;1.20;0.63;;;;;;;10.09;100.00;96666.72;5000169;28;20216;-73
2021/01/29 02:28:33;;;;;;;0.37;0.37;;;;;;;10.10;100.00;96664.88;5070812;28;20232;-71
2021/01/29 02:31:35;;;;;;;2.37;0.77;;;;;;;10.33;100.00;96656.88;5084978;28;20216;-73
2021/01/29 02:35:02;;;;;;;1.63;0.60;;;;;;;10.43;100.00;96651.00;5092226;28;20260;-73
2021/01/29 02:37:51;;;;;;;0.33;0.30;;;;;;;10.39;100.00;96650.63;5080701;28;20219;-75
2021/01/29 02:40:21;;;;;;;0.67;0.40;;;;;;;10.32;100.00;96642.75;5075980;28;20660;-73
2021/01/29 02:43:20;;;;;;;0.77;0.50;;;;;;;10.25;100.00;96631.38;5078150;28;20210;-73
2021/01/29 02:45:55;;;;;;;0.50;0.40;;;;;;;10.46;100.00;96627.31;5075087;28;20211;-73
2021/01/29 02:48:36;;;;;;;0.63;0.40;;;;;;;10.58;100.00;96620.13;5079206;28;20221;-72
2021/01/29 02:51:06;;;;;;;0.50;0.40;;;;;;;10.61;100.00;96614.31;5081582;28;20216;-71
2021/01/29 02:53:40;;;;;;;3.50;0.50;;;;;;;10.56;100.00;96604.34;5083321;28;20194;-71
2021/01/29 02:56:19;;;;;;;0.50;0.30;;;;;;;10.48;100.00;96592.44;5080950;28;20203;-73
2021/01/29 02:58:52;;;;;;;0.33;0.30;;;;;;;10.49;100.00;96589.50;5087535;28;20550;-74
2021/01/29 03:01:21;;;;;;;0.77;0.50;;;;;;;10.49;100.00;96600.16;5091771;28;20186;-71
2021/01/29 03:03:52;;;;;;;0.33;0.33;;;;;;;10.59;100.00;96592.38;5087847;28;20202;-72
2021/01/29 03:06:25;;;;;;;0.50;0.33;;;;;;;10.57;100.00;96587.31;5091690;28;20191;-72
2021/01/29 03:08:57;;;;;;;0.30;0.30;;;;;;;10.44;100.00;96584.06;5083865;28;20790;-71
2021/01/29 03:11:31;;;;;;;0.90;0.50;;;;;;;10.65;100.00;96580.81;5079761;28;20222;-71
2021/01/29 03:14:05;;;;;;;0.73;0.30;;;;;;;10.55;100.00;96584.06;5083729;28;20202;-72
2021/01/29 03:16:36;;;;;;;1.17;0.50;;;;;;;10.64;100.00;96582.66;5084124;28;20720;-71
2021/01/29 03:19:07;;;;;;;0.40;0.30;;;;;;;10.59;100.00;96584.38;5081588;28;20207;-71
2021/01/29 03:21:37;;;;;;;0.40;0.30;;;;;;;10.65;100.00;96570.91;5086980;28;20186;-71
2021/01/29 03:24:08;;;;;;;0.30;0.30;;;;;;;10.65;100.00;96573.59;5090045;28;20651;-76
2021/01/29 03:26:39;;;;;;;0.37;0.30;;;;;;;10.56;100.00;96569.66;5085229;28;20233;-74
2021/01/29 03:29:12;;;;;;;0.60;0.50;;;;;;;10.57;100.00;96567.81;5091403;28;20191;-71
2021/01/29 03:31:42;;;;;;;0.37;0.37;;;;;;;10.75;100.00;96557.78;5077612;28;20208;-72
2021/01/29 03:34:13;;;;;;;0.40;0.40;;;;;;;10.65;100.00;96552.25;5075991;28;20195;-73
2021/01/29 03:36:44;;;;;;;1.17;0.40;;;;;;;10.53;100.00;96556.00;5075760;28;20217;-73
2021/01/29 03:39:15;;;;;;;1.50;0.83;;;;;;;10.66;100.00;96545.84;5080285;28;20211;-71
2021/01/29 03:41:44;;;;;;;0.40;0.40;;;;;;;10.73;100.00;96543.06;5089541;28;20662;-72
2021/01/29 03:44:19;;;;;;;0.40;0.30;;;;;;;10.76;100.00;96542.59;5083771;28;20210;-72
2021/01/29 03:46:51;;;;;;;0.30;0.30;;;;;;;10.69;100.00;96537.41;5078932;28;20238;-71
2021/01/29 03:49:22;;;;;;;0.33;0.33;;;;;;;10.67;100.00;96533.34;5095246;28;20194;-71
2021/01/29 03:51:59;;;;;;;0.37;0.37;;;;;;;10.73;100.00;96528.94;5094561;28;20705;-71
2021/01/29 03:54:29;;;;;;;0.60;0.40;;;;;;;10.72;100.00;96525.44;5087761;28;20204;-71
2021/01/29 03:57:07;;;;;;;3.00;0.30;;;;;;;10.78;100.00;96511.97;5086198;28;20286;-73
2021/01/29 03:59:38;;;;;;;0.30;0.30;;;;;;;10.77;100.00;96523.69;5095361;28;20236;-73
2021/01/29 04:02:10;;;;;;;2.37;0.40;;;;;;;10.69;100.00;96505.38;5094934;28;20194;-70
2021/01/29 04:04:43;;;;;;;1.07;0.40;;;;;;;10.67;100.00;96488.00;5095432;28;20209;-73
2021/01/29 04:07:15;;;;;;;1.10;0.60;;;;;;;10.64;100.00;96483.94;5091043;28;20222;-71
2021/01/29 04:09:49;;;;;;;0.80;0.50;;;;;;;10.54;100.00;96491.75;5089983;28;20271;-71
2021/01/29 04:12:22;;;;;;;0.70;0.40;;;;;;;10.55;100.00;96485.38;5093993;28;20357;-71
2021/01/29 04:14:52;;;;;;;1.43;0.40;;;;;;;10.52;100.00;96479.69;5093424;28;20233;-71
2021/01/29 04:17:22;;;;;;;0.73;0.40;;;;;;;10.42;100.00;96482.16;5082759;28;20327;-70
2021/01/29 04:19:52;;;;;;;1.30;0.60;;;;;;;10.54;100.00;96469.59;5076953;28;20203;-71
2021/01/29 04:22:21;;;;;;;1.20;0.40;;;;;;;10.44;100.00;96459.56;5085495;28;20615;-71
2021/01/29 04:24:51;;;;;;;0.37;0.30;;;;;;;10.29;100.00;96445.09;5077494;28;20221;-72
2021/01/29 04:27:24;;;;;;;0.20;0.20;;;;;;;10.32;100.00;96437.47;5090314;28;20238;-71
2021/01/29 04:29:55;;;;;;;1.23;0.30;;;;;;;10.34;100.00;96437.19;5074304;28;20550;-73
2021/01/29 04:32:25;;;;;;;1.50;0.40;;;;;;;10.44;100.00;96435.56;5086184;28;20215;-73
2021/01/29 04:34:55;;;;;;;0.63;0.30;;;;;;;10.31;100.00;96421.69;5085640;28;20195;-73
2021/01/29 04:37:26;;;;;;;0.50;0.40;;;;;;;10.30;100.00;96414.75;5093723;28;20221;-73
2021/01/29 04:39:57;;;;;;;0.20;0.20;;;;;;;10.32;100.00;96417.97;5077737;28;20207;-74
2021/01/29 04:42:39;;;;;;;0.20;0.20;;;;;;;10.40;100.00;96415.72;5073388;28;20598;-74
2021/01/29 04:45:20;;;;;;;0.30;0.30;;;;;;;10.33;100.00;96398.25;5090328;28;20207;-71
2021/01/29 04:47:48;;;;;;;0.30;0.30;;;;;;;10.42;100.00;96402.16;5076041;28;20227;-72
2021/01/29 04:50:44;;;;;;;0.30;0.20;;;;;;;10.31;100.00;96379.84;5085681;28;20201;-73
2021/01/29 04:53:32;;;;;;;0.40;0.40;;;;;;;10.32;100.00;96375.31;5055823;28;20271;-74
2021/01/29 04:56:21;;;;;;;0.90;0.30;;;;;;;10.26;100.00;96361.06;5083091;28;20575;-73
2021/01/29 04:59:22;;;;;;;0.30;0.30;;;;;;;10.12;100.00;96360.81;5077653;28;20206;-73
2021/01/29 05:02:08;;;;;;;1.17;0.20;;;;;;;10.13;100.00;96361.38;5039070;28;20198;-73
2021/01/29 05:05:03;;;;;;;1.97;0.37;;;;;;;10.12;100.00;96355.50;5073682;28;20211;-74
2021/01/29 05:08:21;;;;;;;0.50;0.30;;;;;;;10.20;100.00;96335.38;5073345;28;20221;-71
2021/01/29 05:11:06;;;;;;;1.13;0.50;;;;;;;10.13;100.00;96344.56;5034335;28;20253;-74
2021/01/29 05:13:56;;;;;;;0.30;0.30;;;;;;;10.10;100.00;96337.06;5087023;28;20268;-74
2021/01/29 05:17:05;;;;;;;0.77;0.20;;;;;;;9.94;100.00;96343.91;5079652;28;20197;-72
2021/01/29 05:20:01;;;;;;;0.80;0.30;;;;;;;10.29;100.00;96338.47;5044253;28;20207;-74
2021/01/29 05:22:55;;;;;;;0.40;0.40;;;;;;;10.23;100.00;96340.25;5062671;28;20214;-73
2021/01/29 05:26:05;;;;;;;0.30;0.30;;;;;;;10.14;100.00;96340.88;5068759;28;20724;-73
2021/01/29 05:28:49;;;;;;;0.20;0.20;;;;;;;10.23;100.00;96338.63;5088422;28;20199;-74
2021/01/29 05:31:34;;;;;;;2.30;0.30;;;;;;;10.22;100.00;96319.16;5085658;28;20221;-73
2021/01/29 05:34:28;;;;;;;0.50;0.40;;;;;;;10.26;100.00;96315.75;5050962;28;20652;-75
2021/01/29 05:37:10;;;;;;;0.40;0.40;;;;;;;10.21;100.00;96293.56;5083597;28;20227;-74
2021/01/29 05:39:48;;;;;;;0.30;0.30;;;;;;;10.19;100.00;96293.00;5088944;28;20210;-74
2021/01/29 05:42:29;;;;;;;0.27;0.27;;;;;;;10.07;100.00;96292.22;5081181;28;20198;-75
2021/01/29 05:45:23;;;;;;;1.10;0.80;;;;;;;10.01;100.00;96272.66;5086743;28;20869;-74
2021/01/29 05:48:16;;;;;;;0.63;0.40;;;;;;;10.09;100.00;96269.63;5077234;28;20228;-74
2021/01/29 05:51:09;;;;;;;1.17;0.40;;;;;;;10.08;100.00;96253.84;5080749;28;20209;-74
2021/01/29 05:53:58;;;;;;;0.20;0.20;;;;;;;9.97;100.00;96244.03;5085679;28;20205;-74
2021/01/29 05:56:31;;;;;;;0.30;0.30;;;;;;;9.66;100.00;96239.22;5083347;28;20289;-74
2021/01/29 05:59:10;;;;;;;0.40;0.40;;;;;;;9.83;100.00;96242.72;5085289;28;20202;-73
2021/01/29 06:02:00;;;;;;;0.40;0.30;;;;;;;9.62;100.00;96240.72;5087151;28;20246;-72
2021/01/29 06:04:56;;;;;;;1.40;0.40;;;;;;;9.72;100.00;96254.25;5083133;28;20232;-73
2021/01/29 06:07:50;;;;;;;0.30;0.30;;;;;;;9.56;100.00;96266.47;5076030;28;20229;-73
2021/01/29 06:10:49;;;;;;;0.30;0.30;;;;;;;9.72;100.00;96280.88;5081907;28;20195;-72
2021/01/29 06:13:44;;;;;;;1.27;0.50;;;;;;;9.87;100.00;96297.16;5081092;28;20232;-78
2021/01/29 06:16:31;;;;;;;0.20;0.20;;;;;;;9.78;100.00;96294.06;5059068;28;20229;-74
2021/01/29 06:19:35;;;;;;;0.43;0.30;;;;;;;9.83;100.00;96315.47;5088490;28;20215;-74
2021/01/29 06:22:25;;;;;;;0.57;0.37;;;;;;;10.00;100.00;96326.19;5042920;28;20207;-74
2021/01/29 06:25:08;;;;;;;0.40;0.40;;;;;;;9.80;100.00;96328.47;5087646;28;20650;-74
2021/01/29 06:28:02;;;;;;;1.00;0.40;;;;;;;9.91;100.00;96341.75;5083435;28;20705;-75
2021/01/29 06:30:44;;;;;;;2.37;0.40;;;;;;;9.89;100.00;96343.81;5079298;28;20196;-73
2021/01/29 06:33:49;;;;;;;1.80;0.30;;;;;;;9.94;100.00;96359.13;5087713;28;20202;-74
2021/01/29 06:36:25;;;;;;;2.63;0.43;;;;;;;9.80;100.00;96350.56;5089996;28;20198;-76
2021/01/29 06:39:06;;;;;;;0.37;0.30;;;;;;;9.93;100.00;96344.97;5092354;28;20214;-82
2021/01/29 06:41:56;;;;;;;0.40;0.40;;;;;;;10.00;100.00;96339.50;5083069;28;20562;-77
2021/01/29 06:44:35;;;;;;;0.57;0.40;;;;;;;10.05;100.00;96329.75;5080568;28;20204;-73
2021/01/29 06:47:16;;;;;;;1.90;0.40;;;;;;;10.08;100.00;96321.31;5084033;28;20277;-83
2021/01/29 06:50:05;;;;;;;0.87;0.40;;;;;;;10.13;100.00;96328.56;5082650;28;20670;-74
2021/01/29 06:53:24;;;;;;;0.20;0.20;;;;;;;10.00;100.00;96344.84;5083632;28;20720;-77
2021/01/29 06:56:34;;;;;;;0.70;0.30;;;;;;;10.10;100.00;96340.53;5035962;28;20444;-76
2021/01/29 06:59:40;;;;;;;0.20;0.20;;;;;;;10.03;100.00;96331.84;5031900;28;20275;-78
2021/01/29 07:02:39;;;;;;;1.00;0.30;;;;;;;10.05;100.00;96342.31;5079524;28;20201;-76
2021/01/29 07:05:14;;;;;;;0.37;0.17;;;;;;;10.11;100.00;96344.00;5071916;28;20210;-76
2021/01/29 07:08:09;;;;;;;1.07;0.30;;;;;;;10.03;100.00;96344.34;5082190;28;20739;-76
2021/01/29 07:11:04;;;;;;;1.37;0.30;;;;;;;10.12;100.00;96355.50;5086291;28;20206;-75
2021/01/29 07:14:01;;;;;;;0.53;0.27;;;;;;;10.08;100.00;96363.94;5074892;28;20202;-78
2021/01/29 07:16:39;;;;;;;2.20;0.40;;;;;;;10.20;100.00;96378.03;5092213;28;20218;-75
2021/01/29 07:19:29;;;;;;;0.50;0.30;;;;;;;10.13;100.00;96380.03;5091235;28;20204;-75
2021/01/29 07:22:48;;;;;;;2.03;0.40;;;;;;;10.28;100.00;96384.84;5094207;28;20206;-73
2021/01/29 07:25:20;;;;;;;0.20;0.20;;;;;;;10.38;100.00;96389.56;5082149;28;20205;-74
2021/01/29 07:27:52;;;;;;;0.77;0.50;;;;;;;10.43;100.00;96390.44;5087100;28;20285;-75
2021/01/29 07:30:32;;;;;;;0.63;0.20;;;;;;;10.48;100.00;96388.69;5085323;28;20202;-75
2021/01/29 07:33:02;;;;;;;0.30;0.30;;;;;;;10.50;100.00;96397.25;5089144;28;20222;-76
2021/01/29 07:35:36;;;;;;;1.43;0.30;;;;;;;10.64;100.00;96397.75;5096342;28;20190;-75
2021/01/29 07:38:34;;;;;;;0.30;0.30;;;;;;;10.57;100.00;96402.44;5099046;22;20245;-77
2021/01/29 07:41:21;;;;;;;1.03;0.37;;;;;;;10.56;100.00;96406.97;5086676;28;20208;-75
2021/01/29 07:44:01;;;;;;;0.50;0.40;;;;;;;10.50;100.00;96405.25;5086071;28;20218;-74
2021/01/29 07:46:43;;;;;;;0.30;0.30;;;;;;;10.55;100.00;96396.56;5091244;28;20231;-75
2021/01/29 07:49:31;;;;;;;0.50;0.50;;;;;;;10.60;100.00;96392.09;5095486;28;20199;-73
2021/01/29 07:52:07;;;;;;;1.57;0.40;;;;;;;10.72;100.00;96402.72;5094977;28;20589;-76
2021/01/29 07:54:53;;;;;;;0.53;0.40;;;;;;;10.81;100.00;96398.63;5082520;28;20206;-73
2021/01/29 07:57:56;;;;;;;0.97;0.30;;;;;;;10.80;100.00;96413.00;5079492;28;20308;-74
2021/01/29 08:00:25;;;;;;;0.30;0.30;;;;;;;10.78;100.00;96393.75;5073632;28;20638;-74
2021/01/29 08:03:07;;;;;;;0.40;0.37;;;;;;;10.83;100.00;96400.00;5095316;28;20639;-74
2021/01/29 08:05:38;;;;;;;1.33;0.30;;;;;;;10.83;100.00;96397.31;5087147;28;20206;-75
2021/01/29 08:08:09;;;;;;;0.20;0.20;;;;;;;11.01;100.00;96413.09;5096116;28;20242;-77
2021/01/29 08:10:38;;;;;;;0.30;0.30;;;;;;;11.10;100.00;96406.31;5083421;28;20654;-77
2021/01/29 08:13:14;;;;;;;0.73;0.33;;;;;;;11.20;100.00;96400.31;5088974;28;20250;-72
2021/01/29 08:15:57;;;;;;;0.33;0.30;;;;;;;10.98;100.00;96410.09;5087984;28;20199;-76
2021/01/29 08:18:44;;;;;;;0.30;0.20;;;;;;;11.02;100.00;96409.38;5091082;28;20222;-72
2021/01/29 08:21:39;;;;;;;0.43;0.40;;;;;;;10.96;100.00;96405.00;5075296;28;20190;-74
2021/01/29 08:24:15;;;;;;;0.30;0.30;;;;;;;10.91;100.00;96415.59;5091182;28;20215;-76
2021/01/29 08:26:50;;;;;;;0.57;0.33;;;;;;;10.96;100.00;96415.66;5078908;28;20246;-76
2021/01/29 08:29:46;;;;;;;0.40;0.20;;;;;;;11.05;100.00;96403.56;5088316;28;20204;-75
2021/01/29 08:32:42;;;;;;;1.13;0.40;;;;;;;10.95;100.00;96405.25;5086332;28;20210;-76
2021/01/29 08:35:25;;;;;;;2.00;0.30;;;;;;;11.02;100.00;96416.56;5090840;28;20661;-74
2021/01/29 08:37:58;;;;;;;1.23;0.20;;;;;;;11.10;100.00;96403.63;5090152;28;20285;-74
2021/01/29 08:40:29;;;;;;;0.20;0.20;;;;;;;11.16;100.00;96397.31;5077153;28;20196;-77
2021/01/29 08:43:09;;;;;;;0.43;0.30;;;;;;;11.17;100.00;96401.59;5082237;28;20668;-70
2021/01/29 08:45:44;;;;;;;1.40;0.30;;;;;;;11.20;100.00;96405.63;5087632;28;20240;-71
2021/01/29 08:48:23;;;;;;;0.30;0.30;;;;;;;11.12;100.00;96414.88;5086807;28;20232;-73
2021/01/29 08:50:58;;;;;;;0.40;0.37;;;;;;;11.20;100.00;96409.13;5092195;28;20194;-74
2021/01/29 08:53:55;;;;;;;2.13;0.30;;;;;;;11.35;100.00;96420.06;5086026;28;20200;-72
2021/01/29 08:56:28;;;;;;;0.40;0.40;;;;;;;11.22;100.00;96440.94;5088321;28;20199;-74
2021/01/29 08:58:59;;;;;;;1.70;0.50;;;;;;;11.50;100.00;96408.78;5087419;28;20598;-78
2021/01/29 09:01:29;;;;;;;0.60;0.47;;;;;;;11.46;100.00;96423.69;5093155;28;20191;-74
2021/01/29 09:04:00;;;;;;;1.80;0.30;;;;;;;11.36;100.00;96429.66;5088570;28;20211;-76
2021/01/29 09:06:29;;;;;;;0.30;0.30;;;;;;;11.62;100.00;96432.75;5092807;28;20210;-73
2021/01/29 09:08:58;;;;;;;1.90;0.60;;;;;;;11.91;100.00;96456.41;5090227;28;20215;-72
2021/01/29 09:11:29;;;;;;;1.47;0.50;;;;;;;11.98;100.00;96458.91;5088475;28;20242;-73
2021/01/29 09:13:58;;;;;;;0.50;0.40;;;;;;;11.79;100.00;96447.72;5092217;28;20629;-76
2021/01/29 09:16:29;;;;;;;0.20;0.20;;;;;;;11.67;100.00;96460.38;5079662;28;20594;-73
2021/01/29 09:19:03;;;;;;;1.93;0.50;;;;;;;11.44;100.00;96453.31;5086577;28;20291;-74
2021/01/29 09:21:36;;;;;;;0.30;0.30;;;;;;;11.65;100.00;96456.31;5082842;28;20192;-75
2021/01/29 09:24:08;;;;;;;1.47;0.33;;;;;;;11.82;100.00;96469.41;5086030;28;20212;-73
2021/01/29 09:26:39;;;;;;;1.70;0.40;;;;;;;11.98;100.00;96469.59;5089860;28;20751;-71
2021/01/29 09:29:14;;;;;;;0.57;0.33;;;;;;;12.12;100.00;96473.56;5085046;28;20216;-75
2021/01/29 09:31:42;;;;;;;3.00;0.37;;;;;;;12.70;100.00;96479.88;5085828;28;20224;-74
2021/01/29 09:34:10;;;;;;;0.43;0.30;;;;;;;12.47;100.00;96488.16;5086219;28;20213;-71
2021/01/29 09:36:46;;;;;;;1.20;0.50;;;;;;;12.63;100.00;96502.53;5092753;28;20221;-71
2021/01/29 09:39:16;;;;;;;1.97;0.53;;;;;;;12.48;100.00;96494.34;5091762;28;20223;-71
2021/01/29 09:41:48;;;;;;;3.27;0.73;;;;;;;12.42;100.00;96506.03;5091821;28;20205;-73
2021/01/29 09:44:23;;;;;;;2.80;0.83;;;;;;;12.32;100.00;96505.91;5087944;28;20211;-73
2021/01/29 09:46:54;;;;;;;1.80;0.40;;;;;;;12.32;100.00;96530.81;5073824;28;20225;-72
2021/01/29 09:49:23;;;;;;;3.20;0.50;;;;;;;12.36;100.00;96520.41;5078476;28;20235;-71
2021/01/29 09:52:04;;;;;;;1.13;0.47;;;;;;;12.22;100.00;96527.16;5078179;28;20228;-72
2021/01/29 09:54:38;;;;;;;1.40;0.30;;;;;;;12.56;100.00;96526.03;5086327;28;20214;-78
2021/01/29 09:57:10;;;;;;;1.63;0.67;;;;;;;12.83;99.92;96531.16;5087937;28;20238;-75
2021/01/29 09:59:45;;;;;;;1.57;0.50;;;;;;;13.09;97.90;96542.19;5086767;28;20335;-74
2021/01/29 10:02:33;;;;;;;1.47;0.60;;;;;;;12.87;97.35;96547.53;5084523;28;20593;-74
2021/01/29 10:05:31;;;;;;;4.03;0.80;;;;;;;12.73;95.61;96536.41;5088931;28;20205;-73
2021/01/29 10:08:11;;;;;;;4.10;0.60;;;;;;;12.76;93.35;96545.78;5088679;28;20612;-74
2021/01/29 10:10:49;;;;;;;1.73;0.50;;;;;;;12.77;91.65;96551.97;5085909;28;20204;-71
2021/01/29 10:13:49;;;;;;;4.53;0.53;;;;;;;12.54;91.51;96555.69;5089074;28;20210;-72
2021/01/29 10:16:35;;;;;;;1.00;0.70;;;;;;;12.08;94.02;96551.56;5087137;28;20852;-72
2021/01/29 10:19:13;;;;;;;1.93;0.60;;;;;;;11.99;89.60;96570.97;5087741;28;20256;-75
2021/01/29 10:22:01;;;;;;;4.57;0.87;;;;;;;11.86;92.66;96568.59;5079443;28;20204;-75
2021/01/29 10:24:38;;;;;;;1.57;0.47;;;;;;;12.00;94.37;96550.41;5090874;28;20201;-74
2021/01/29 10:27:10;;;;;;;2.53;0.70;;;;;;;11.88;97.21;96553.16;5075628;28;20580;-72
2021/01/29 10:29:41;;;;;;;2.50;0.80;;;;;;;11.92;90.13;96556.97;5092435;28;20214;-74
2021/01/29 10:32:12;;;;;;;5.80;0.90;;;;;;;11.98;92.21;96555.97;5083272;28;20213;-75
2021/01/29 10:34:42;;;;;;;3.27;0.70;;;;;;;12.07;89.99;96572.41;5092241;28;20333;-73
2021/01/29 10:37:14;;;;;;;1.13;0.43;;;;;;;12.00;88.77;96550.41;5076801;28;20239;-75
2021/01/29 10:39:59;;;;;;;1.30;0.53;;;;;;;11.91;89.46;96565.22;5087692;28;20706;-82
2021/01/29 10:42:32;;;;;;;2.50;0.50;;;;;;;12.03;87.02;96564.88;5083014;28;20706;-75
2021/01/29 10:44:59;;;;;;;2.73;0.90;;;;;;;12.07;87.93;96565.22;5082403;28;20204;-76
2021/01/29 10:47:38;;;;;;;2.67;0.67;;;;;;;12.33;86.60;96549.25;5082289;28;20621;-74
2021/01/29 10:50:13;;;;;;;2.87;0.70;;;;;;;12.62;82.42;96557.13;5089113;28;20260;-72
2021/01/29 10:52:43;;;;;;;4.83;0.70;;;;;;;12.40;82.92;96564.34;5083822;28;20216;-73
2021/01/29 10:55:24;;;;;;;3.53;0.80;;;;;;;12.56;82.26;96544.75;5081893;28;20212;-73
2021/01/29 10:58:18;;;;;;;2.27;0.97;;;;;;;12.57;84.10;96546.38;5089473;28;20843;-72
2021/01/29 11:00:52;;;;;;;3.57;0.90;;;;;;;12.71;81.56;96561.00;5087337;28;20698;-72
2021/01/29 11:03:39;;;;;;;2.03;0.60;;;;;;;12.76;81.96;96540.44;5094801;28;20260;-72
2021/01/29 11:06:09;;;;;;;3.00;1.03;;;;;;;12.62;82.19;96557.13;5091786;28;20276;-72
2021/01/29 11:08:40;;;;;;;3.87;1.03;;;;;;;12.45;83.68;96543.81;5090853;28;20663;-73
2021/01/29 11:11:13;;;;;;;5.17;1.00;;;;;;;12.41;85.55;96549.91;5079811;28;20217;-71
2021/01/29 11:13:58;;;;;;;3.87;0.73;;;;;;;12.33;87.15;96559.16;5087387;28;20203;-74
2021/01/29 11:16:35;;;;;;;4.70;1.10;;;;;;;12.23;89.56;96565.16;5090591;28;20208;-73
2021/01/29 11:19:03;;;;;;;3.90;0.97;;;;;;;12.05;89.85;96566.50;5080494;28;20193;-73
2021/01/29 11:21:35;;;;;;;0.93;0.60;;;;;;;12.01;89.35;96555.47;5073457;28;20190;-73
2021/01/29 11:24:09;;;;;;;3.50;0.67;;;;;;;11.98;89.65;96582.72;5084162;28;20219;-75
2021/01/29 11:26:41;;;;;;;2.10;0.70;;;;;;;11.78;91.38;96574.38;5082625;28;20224;-77
2021/01/29 11:29:11;;;;;;;4.07;0.93;;;;;;;11.82;91.72;96561.31;5090820;28;20219;-75
2021/01/29 11:31:45;;;;;;;3.23;0.80;;;;;;;11.94;92.73;96573.56;5085260;28;20209;-75
2021/01/29 11:34:23;;;;;;;2.80;0.67;;;;;;;12.06;91.53;96563.56;5078150;28;20199;-75
2021/01/29 11:37:02;;;;;;;3.43;0.80;;;;;;;11.97;90.63;96569.59;5088226;28;20586;-71
2021/01/29 11:39:34;;;;;;;2.70;0.80;;;;;;;11.86;95.52;96552.56;5082839;28;20197;-77
2021/01/29 11:42:08;;;;;;;4.10;0.97;;;;;;;12.19;91.93;96568.59;5090639;28;20192;-79
2021/01/29 11:44:49;;;;;;;2.83;0.90;;;;;;;12.10;90.70;96566.59;5081384;28;20205;-74
2021/01/29 11:47:23;;;;;;;3.10;0.90;;;;;;;12.38;89.84;96559.22;5088681;28;20221;-74
2021/01/29 11:49:55;;;;;;;3.93;0.70;;;;;;;12.13;87.22;96557.00;5082908;28;20195;-76
2021/01/29 11:52:26;;;;;;;2.07;0.70;;;;;;;12.12;89.54;96564.47;5070827;28;20202;-76
2021/01/29 11:55:01;;;;;;;0.63;0.40;;;;;;;12.18;90.00;96548.25;5087855;28;20200;-76
2021/01/29 11:57:39;;;;;;;0.40;0.40;;;;;;;12.51;88.53;96558.06;5085340;28;20214;-77
2021/01/29 12:00:10;;;;;;;2.83;0.87;;;;;;;12.79;87.62;96550.66;5089321;28;20216;-78
2021/01/29 12:02:39;;;;;;;3.23;0.50;;;;;;;12.59;86.28;96551.19;5093638;28;20193;-72
2021/01/29 12:05:17;;;;;;;3.07;0.70;;;;;;;12.23;86.47;96559.81;5085880;28;20665;-74
2021/01/29 12:07:48;;;;;;;1.67;0.67;;;;;;;12.53;85.47;96541.50;5091918;28;20216;-75
2021/01/29 12:10:23;;;;;;;2.63;0.67;;;;;;;12.38;86.98;96549.31;5088367;28;20203;-73
2021/01/29 12:12:56;;;;;;;1.83;0.67;;;;;;;12.26;89.51;96536.31;5081135;28;20214;-72
2021/01/29 12:15:34;;;;;;;2.00;0.70;;;;;;;12.32;84.73;96542.28;5085622;28;20285;-73
2021/01/29 12:18:02;;;;;;;2.73;0.73;;;;;;;12.36;83.77;96539.94;5093850;28;20216;-73